Terminal Aerodrome Forecast
Issued by NWS

Home | Current Version | Previous Version | Text Only | Print | Product List | Glossary On
Versions: 1 2 3 4 5 6 7 8 9 10 11 12 13
958
FTUS44 KTSA 290520
TAFFYV
TAF
KFYV 290520Z 2906/3006 14007KT P6SM SCT007 BKN035
      TEMPO 2906/2910 3SM TSRA BR BKN007CB
     FM291000 16010KT 5SM -TSRA BR OVC010CB=

USA.gov is the U.S. government's official web portal to all federal, state and local government web resources and services.